sensor_id;sensor_type;location;lat;lon;timestamp;temperature;humidity
1786;DHT22;890;48.158;11.540;2023-07-31T00:02:00;19.20;70.40
1786;DHT22;890;48.158;11.540;2023-07-31T00:04:25;19.20;70.50
1786;DHT22;890;48.158;11.540;2023-07-31T00:06:51;19.10;70.80
1786;DHT22;890;48.158;11.540;2023-07-31T00:09:17;19.00;70.90
1786;DHT22;890;48.158;11.540;2023-07-31T00:11:42;19.00;70.90
1786;DHT22;890;48.158;11.540;2023-07-31T00:14:08;19.00;70.90
1786;DHT22;890;48.158;11.540;2023-07-31T00:16:33;19.00;70.90
1786;DHT22;890;48.158;11.540;2023-07-31T00:18:59;19.00;71.10
1786;DHT22;890;48.158;11.540;2023-07-31T00:21:24;19.00;71.30
1786;DHT22;890;48.158;11.540;2023-07-31T00:23:50;18.90;71.20
1786;DHT22;890;48.158;11.540;2023-07-31T00:26:16;19.00;71.60
1786;DHT22;890;48.158;11.540;2023-07-31T00:28:41;19.00;71.40
1786;DHT22;890;48.158;11.540;2023-07-31T00:31:07;19.00;71.40
1786;DHT22;890;48.158;11.540;2023-07-31T00:33:34;19.00;72.20
1786;DHT22;890;48.158;11.540;2023-07-31T00:36:00;19.10;71.50
1786;DHT22;890;48.158;11.540;2023-07-31T00:38:25;19.10;71.50
1786;DHT22;890;48.158;11.540;2023-07-31T00:40:51;19.00;71.70
1786;DHT22;890;48.158;11.540;2023-07-31T00:43:17;19.10;71.30
1786;DHT22;890;48.158;11.540;2023-07-31T00:45:42;19.00;71.40
1786;DHT22;890;48.158;11.540;2023-07-31T00:48:08;19.00;71.50
1786;DHT22;890;48.158;11.540;2023-07-31T00:50:35;18.90;71.60
1786;DHT22;890;48.158;11.540;2023-07-31T00:53:00;18.90;71.70
1786;DHT22;890;48.158;11.540;2023-07-31T00:55:26;18.90;71.60
1786;DHT22;890;48.158;11.540;2023-07-31T00:57:52;18.80;71.70
1786;DHT22;890;48.158;11.540;2023-07-31T01:00:21;18.80;72.70
1786;DHT22;890;48.158;11.540;2023-07-31T01:02:48;18.80;72.00
1786;DHT22;890;48.158;11.540;2023-07-31T01:05:14;18.90;71.90
1786;DHT22;890;48.158;11.540;2023-07-31T01:07:42;18.80;71.90
1786;DHT22;890;48.158;11.540;2023-07-31T01:10:27;18.70;72.00
1786;DHT22;890;48.158;11.540;2023-07-31T01:12:56;18.60;72.20
1786;DHT22;890;48.158;11.540;2023-07-31T01:15:23;18.70;72.40
1786;DHT22;890;48.158;11.540;2023-07-31T01:17:48;18.70;72.40
1786;DHT22;890;48.158;11.540;2023-07-31T01:20:23;18.70;72.20
1786;DHT22;890;48.158;11.540;2023-07-31T01:23:19;18.70;72.10
1786;DHT22;890;48.158;11.540;2023-07-31T01:29:32;18.90;72.00
1786;DHT22;890;48.158;11.540;2023-07-31T01:31:31;18.90;71.90
1786;DHT22;890;48.158;11.540;2023-07-31T01:34:01;18.90;71.60
1786;DHT22;890;48.158;11.540;2023-07-31T01:36:27;18.90;71.60
1786;DHT22;890;48.158;11.540;2023-07-31T01:38:58;19.00;71.60
1786;DHT22;890;48.158;11.540;2023-07-31T01:41:24;18.90;71.60
1786;DHT22;890;48.158;11.540;2023-07-31T01:43:50;18.90;71.60
1786;DHT22;890;48.158;11.540;2023-07-31T01:46:15;18.90;71.80
1786;DHT22;890;48.158;11.540;2023-07-31T01:48:41;18.80;71.70
1786;DHT22;890;48.158;11.540;2023-07-31T01:51:06;18.80;71.60
1786;DHT22;890;48.158;11.540;2023-07-31T01:53:32;18.80;71.50
1786;DHT22;890;48.158;11.540;2023-07-31T01:55:58;18.80;71.70
1786;DHT22;890;48.158;11.540;2023-07-31T01:58:24;18.80;71.60
1786;DHT22;890;48.158;11.540;2023-07-31T02:00:49;18.90;71.70
1786;DHT22;890;48.158;11.540;2023-07-31T02:03:15;18.80;71.70
1786;DHT22;890;48.158;11.540;2023-07-31T02:05:45;19.00;72.10
1786;DHT22;890;48.158;11.540;2023-07-31T02:08:11;18.90;72.00
1786;DHT22;890;48.158;11.540;2023-07-31T02:10:36;19.00;72.00
1786;DHT22;890;48.158;11.540;2023-07-31T02:13:02;19.00;71.90
1786;DHT22;890;48.158;11.540;2023-07-31T02:15:29;19.00;71.80
1786;DHT22;890;48.158;11.540;2023-07-31T02:17:55;19.00;71.80
1786;DHT22;890;48.158;11.540;2023-07-31T02:20:21;19.10;71.90
1786;DHT22;890;48.158;11.540;2023-07-31T02:22:46;18.40;71.00
1786;DHT22;890;48.158;11.540;2023-07-31T02:25:12;19.20;71.80
1786;DHT22;890;48.158;11.540;2023-07-31T02:27:37;19.20;71.80
1786;DHT22;890;48.158;11.540;2023-07-31T02:30:03;19.20;71.80
1786;DHT22;890;48.158;11.540;2023-07-31T02:32:29;19.10;71.70
1786;DHT22;890;48.158;11.540;2023-07-31T02:34:54;19.10;71.80
1786;DHT22;890;48.158;11.540;2023-07-31T02:37:20;19.10;71.70
1786;DHT22;890;48.158;11.540;2023-07-31T02:39:45;19.10;71.80
1786;DHT22;890;48.158;11.540;2023-07-31T02:42:12;19.00;71.90
1786;DHT22;890;48.158;11.540;2023-07-31T02:44:37;19.00;72.10
1786;DHT22;890;48.158;11.540;2023-07-31T02:47:03;19.20;72.50
1786;DHT22;890;48.158;11.540;2023-07-31T02:49:29;18.80;72.50
1786;DHT22;890;48.158;11.540;2023-07-31T02:51:54;18.80;72.60
1786;DHT22;890;48.158;11.540;2023-07-31T02:54:20;18.70;72.60
1786;DHT22;890;48.158;11.540;2023-07-31T02:56:47;18.80;72.70
1786;DHT22;890;48.158;11.540;2023-07-31T02:59:13;18.70;72.60
1786;DHT22;890;48.158;11.540;2023-07-31T03:01:38;18.70;72.70
1786;DHT22;890;48.158;11.540;2023-07-31T03:04:04;18.60;72.70
1786;DHT22;890;48.158;11.540;2023-07-31T03:06:30;18.60;72.90
1786;DHT22;890;48.158;11.540;2023-07-31T03:08:55;18.50;72.90
1786;DHT22;890;48.158;11.540;2023-07-31T03:11:21;18.40;73.00
1786;DHT22;890;48.158;11.540;2023-07-31T03:13:47;18.40;73.10
1786;DHT22;890;48.158;11.540;2023-07-31T03:16:12;18.40;73.30
1786;DHT22;890;48.158;11.540;2023-07-31T03:18:38;18.30;73.40
1786;DHT22;890;48.158;11.540;2023-07-31T03:21:04;18.30;73.60
1786;DHT22;890;48.158;11.540;2023-07-31T03:23:30;18.20;73.70
1786;DHT22;890;48.158;11.540;2023-07-31T03:26:01;18.20;73.60
1786;DHT22;890;48.158;11.540;2023-07-31T03:28:28;18.30;73.90
1786;DHT22;890;48.158;11.540;2023-07-31T03:30:54;18.20;74.00
1786;DHT22;890;48.158;11.540;2023-07-31T03:33:19;18.20;74.20
1786;DHT22;890;48.158;11.540;2023-07-31T03:35:45;18.10;74.20
1786;DHT22;890;48.158;11.540;2023-07-31T03:38:11;18.20;74.40
1786;DHT22;890;48.158;11.540;2023-07-31T03:40:36;18.20;74.40
1786;DHT22;890;48.158;11.540;2023-07-31T03:43:02;18.30;74.50
1786;DHT22;890;48.158;11.540;2023-07-31T03:45:27;18.30;74.50
1786;DHT22;890;48.158;11.540;2023-07-31T03:47:53;18.30;74.40
1786;DHT22;890;48.158;11.540;2023-07-31T03:50:20;18.40;74.50
1786;DHT22;890;48.158;11.540;2023-07-31T03:52:46;18.40;74.60
1786;DHT22;890;48.158;11.540;2023-07-31T03:55:11;18.40;74.50
1786;DHT22;890;48.158;11.540;2023-07-31T03:57:37;18.40;74.50
1786;DHT22;890;48.158;11.540;2023-07-31T04:00:03;18.40;74.80
1786;DHT22;890;48.158;11.540;2023-07-31T04:02:29;18.30;74.90
1786;DHT22;890;48.158;11.540;2023-07-31T04:04:54;18.30;75.00
1786;DHT22;890;48.158;11.540;2023-07-31T04:07:20;18.30;75.30
1786;DHT22;890;48.158;11.540;2023-07-31T04:09:45;18.30;75.40
1786;DHT22;890;48.158;11.540;2023-07-31T04:12:11;18.20;75.50
1786;DHT22;890;48.158;11.540;2023-07-31T04:14:37;18.20;75.70
1786;DHT22;890;48.158;11.540;2023-07-31T04:17:02;18.30;75.90
1786;DHT22;890;48.158;11.540;2023-07-31T04:19:28;18.30;75.90
1786;DHT22;890;48.158;11.540;2023-07-31T04:21:54;18.30;76.10
1786;DHT22;890;48.158;11.540;2023-07-31T04:24:19;18.40;76.40
1786;DHT22;890;48.158;11.540;2023-07-31T04:26:50;18.40;77.10
1786;DHT22;890;48.158;11.540;2023-07-31T04:29:16;18.30;76.50
1786;DHT22;890;48.158;11.540;2023-07-31T04:31:41;18.30;76.80
1786;DHT22;890;48.158;11.540;2023-07-31T04:34:07;18.20;77.00
1786;DHT22;890;48.158;11.540;2023-07-31T04:36:34;18.20;77.30
1786;DHT22;890;48.158;11.540;2023-07-31T04:38:59;18.20;77.40
1786;DHT22;890;48.158;11.540;2023-07-31T04:41:25;18.10;77.50
1786;DHT22;890;48.158;11.540;2023-07-31T04:43:51;18.10;77.70
1786;DHT22;890;48.158;11.540;2023-07-31T04:46:16;18.10;77.80
1786;DHT22;890;48.158;11.540;2023-07-31T04:48:42;18.10;77.90
1786;DHT22;890;48.158;11.540;2023-07-31T04:51:08;18.10;77.90
1786;DHT22;890;48.158;11.540;2023-07-31T04:53:35;18.10;78.10
1786;DHT22;890;48.158;11.540;2023-07-31T04:56:00;18.20;78.30
1786;DHT22;890;48.158;11.540;2023-07-31T04:58:26;18.20;78.10
1786;DHT22;890;48.158;11.540;2023-07-31T05:00:52;18.20;78.20
1786;DHT22;890;48.158;11.540;2023-07-31T05:03:17;18.20;78.60
1786;DHT22;890;48.158;11.540;2023-07-31T05:05:43;18.10;78.60
1786;DHT22;890;48.158;11.540;2023-07-31T05:08:08;18.10;78.80
1786;DHT22;890;48.158;11.540;2023-07-31T05:10:34;18.20;79.00
1786;DHT22;890;48.158;11.540;2023-07-31T05:13:00;18.20;79.20
1786;DHT22;890;48.158;11.540;2023-07-31T05:15:25;18.30;79.70
1786;DHT22;890;48.158;11.540;2023-07-31T05:17:51;18.30;79.70
1786;DHT22;890;48.158;11.540;2023-07-31T05:20:16;18.50;79.90
1786;DHT22;890;48.158;11.540;2023-07-31T05:22:42;18.70;79.90
1786;DHT22;890;48.158;11.540;2023-07-31T05:25:08;18.90;79.80
1786;DHT22;890;48.158;11.540;2023-07-31T05:27:33;19.10;79.90
1786;DHT22;890;48.158;11.540;2023-07-31T05:29:59;19.20;79.70
1786;DHT22;890;48.158;11.540;2023-07-31T05:32:25;19.40;79.50
1786;DHT22;890;48.158;11.540;2023-07-31T05:34:51;19.50;79.40
1786;DHT22;890;48.158;11.540;2023-07-31T05:37:18;19.70;79.30
1786;DHT22;890;48.158;11.540;2023-07-31T05:39:43;19.80;79.00
1786;DHT22;890;48.158;11.540;2023-07-31T05:42:09;19.90;78.60
1786;DHT22;890;48.158;11.540;2023-07-31T05:44:35;19.90;78.50
1786;DHT22;890;48.158;11.540;2023-07-31T05:47:00;20.00;78.40
1786;DHT22;890;48.158;11.540;2023-07-31T05:49:26;20.00;78.10
1786;DHT22;890;48.158;11.540;2023-07-31T05:51:51;20.00;78.70
1786;DHT22;890;48.158;11.540;2023-07-31T05:54:17;20.10;77.60
1786;DHT22;890;48.158;11.540;2023-07-31T05:56:42;20.20;77.20
1786;DHT22;890;48.158;11.540;2023-07-31T05:59:10;20.20;77.60
1786;DHT22;890;48.158;11.540;2023-07-31T06:01:35;20.20;76.50
1786;DHT22;890;48.158;11.540;2023-07-31T06:04:01;20.40;76.30
1786;DHT22;890;48.158;11.540;2023-07-31T06:06:28;20.40;76.20
1786;DHT22;890;48.158;11.540;2023-07-31T06:08:54;20.30;75.90
1786;DHT22;890;48.158;11.540;2023-07-31T06:11:23;20.30;76.00
1786;DHT22;890;48.158;11.540;2023-07-31T06:13:48;20.20;75.70
1786;DHT22;890;48.158;11.540;2023-07-31T06:16:15;20.30;75.90
1786;DHT22;890;48.158;11.540;2023-07-31T06:18:42;20.30;75.90
1786;DHT22;890;48.158;11.540;2023-07-31T06:21:09;20.40;75.60
1786;DHT22;890;48.158;11.540;2023-07-31T06:23:34;20.40;75.50
1786;DHT22;890;48.158;11.540;2023-07-31T06:26:00;20.30;75.40
1786;DHT22;890;48.158;11.540;2023-07-31T06:28:29;20.40;75.30
1786;DHT22;890;48.158;11.540;2023-07-31T06:30:56;20.50;75.70
1786;DHT22;890;48.158;11.540;2023-07-31T06:33:21;20.40;74.50
1786;DHT22;890;48.158;11.540;2023-07-31T06:35:47;20.30;74.30
1786;DHT22;890;48.158;11.540;2023-07-31T06:38:12;20.20;74.40
1786;DHT22;890;48.158;11.540;2023-07-31T06:40:38;20.10;74.40
1786;DHT22;890;48.158;11.540;2023-07-31T06:43:04;20.00;74.50
1786;DHT22;890;48.158;11.540;2023-07-31T06:45:36;20.00;74.20
1786;DHT22;890;48.158;11.540;2023-07-31T06:48:02;20.10;74.20
1786;DHT22;890;48.158;11.540;2023-07-31T06:50:30;20.30;74.40
1786;DHT22;890;48.158;11.540;2023-07-31T06:52:56;20.40;73.80
1786;DHT22;890;48.158;11.540;2023-07-31T06:55:22;20.50;73.90
1786;DHT22;890;48.158;11.540;2023-07-31T06:57:49;20.70;73.50
1786;DHT22;890;48.158;11.540;2023-07-31T07:00:15;20.70;73.40
1786;DHT22;890;48.158;11.540;2023-07-31T07:02:41;20.80;73.30
1786;DHT22;890;48.158;11.540;2023-07-31T07:05:07;21.00;73.40
1786;DHT22;890;48.158;11.540;2023-07-31T07:07:34;21.20;72.70
1786;DHT22;890;48.158;11.540;2023-07-31T07:09:59;21.10;72.60
1786;DHT22;890;48.158;11.540;2023-07-31T07:12:27;21.10;72.50
1786;DHT22;890;48.158;11.540;2023-07-31T07:14:52;21.10;72.20
1786;DHT22;890;48.158;11.540;2023-07-31T07:17:19;21.00;72.00
1786;DHT22;890;48.158;11.540;2023-07-31T07:19:44;20.90;72.10
1786;DHT22;890;48.158;11.540;2023-07-31T07:22:11;20.80;72.20
1786;DHT22;890;48.158;11.540;2023-07-31T07:24:37;20.80;73.00
1786;DHT22;890;48.158;11.540;2023-07-31T07:27:03;20.70;72.40
1786;DHT22;890;48.158;11.540;2023-07-31T07:29:28;20.70;72.50
1786;DHT22;890;48.158;11.540;2023-07-31T07:31:54;20.80;72.30
1786;DHT22;890;48.158;11.540;2023-07-31T07:34:22;20.80;72.30
1786;DHT22;890;48.158;11.540;2023-07-31T07:36:48;21.00;72.40
1786;DHT22;890;48.158;11.540;2023-07-31T07:39:14;21.20;72.00
1786;DHT22;890;48.158;11.540;2023-07-31T07:41:39;21.30;71.90
1786;DHT22;890;48.158;11.540;2023-07-31T07:44:05;21.40;71.90
1786;DHT22;890;48.158;11.540;2023-07-31T07:46:31;21.70;71.80
1786;DHT22;890;48.158;11.540;2023-07-31T07:48:56;21.80;70.90
1786;DHT22;890;48.158;11.540;2023-07-31T07:51:22;22.00;70.80
1786;DHT22;890;48.158;11.540;2023-07-31T07:53:47;22.30;70.00
1786;DHT22;890;48.158;11.540;2023-07-31T07:56:13;22.20;69.60
1786;DHT22;890;48.158;11.540;2023-07-31T07:58:39;21.90;69.50
1786;DHT22;890;48.158;11.540;2023-07-31T08:01:04;21.80;69.10
1786;DHT22;890;48.158;11.540;2023-07-31T08:03:30;21.80;69.30
1786;DHT22;890;48.158;11.540;2023-07-31T08:05:59;21.50;69.30
1786;DHT22;890;48.158;11.540;2023-07-31T08:08:25;21.50;69.10
1786;DHT22;890;48.158;11.540;2023-07-31T08:10:51;21.50;69.20
1786;DHT22;890;48.158;11.540;2023-07-31T08:13:16;21.60;69.00
1786;DHT22;890;48.158;11.540;2023-07-31T08:15:42;21.80;69.00
1786;DHT22;890;48.158;11.540;2023-07-31T08:18:08;21.90;68.90
1786;DHT22;890;48.158;11.540;2023-07-31T08:20:34;22.10;68.10
1786;DHT22;890;48.158;11.540;2023-07-31T08:22:59;22.20;67.00
1786;DHT22;890;48.158;11.540;2023-07-31T08:25:25;22.30;66.90
1786;DHT22;890;48.158;11.540;2023-07-31T08:27:50;23.20;67.60
1786;DHT22;890;48.158;11.540;2023-07-31T08:30:18;22.90;66.40
1786;DHT22;890;48.158;11.540;2023-07-31T08:32:44;22.80;65.80
1786;DHT22;890;48.158;11.540;2023-07-31T08:35:10;22.90;65.30
1786;DHT22;890;48.158;11.540;2023-07-31T08:37:37;23.00;64.80
1786;DHT22;890;48.158;11.540;2023-07-31T08:40:03;22.90;63.80
1786;DHT22;890;48.158;11.540;2023-07-31T08:42:29;22.80;63.60
1786;DHT22;890;48.158;11.540;2023-07-31T08:44:56;22.80;63.80
1786;DHT22;890;48.158;11.540;2023-07-31T08:47:22;22.50;62.80
1786;DHT22;890;48.158;11.540;2023-07-31T08:49:49;22.40;62.80
1786;DHT22;890;48.158;11.540;2023-07-31T08:52:15;22.20;63.00
1786;DHT22;890;48.158;11.540;2023-07-31T08:54:41;22.20;63.20
1786;DHT22;890;48.158;11.540;2023-07-31T08:57:07;22.10;63.40
1786;DHT22;890;48.158;11.540;2023-07-31T08:59:35;22.00;63.10
1786;DHT22;890;48.158;11.540;2023-07-31T09:02:05;22.00;62.70
1786;DHT22;890;48.158;11.540;2023-07-31T09:04:32;22.00;63.20
1786;DHT22;890;48.158;11.540;2023-07-31T09:07:01;22.10;63.40
1786;DHT22;890;48.158;11.540;2023-07-31T09:09:28;22.20;63.70
1786;DHT22;890;48.158;11.540;2023-07-31T09:11:55;22.40;63.80
1786;DHT22;890;48.158;11.540;2023-07-31T09:14:21;22.70;63.40
1786;DHT22;890;48.158;11.540;2023-07-31T09:16:54;23.00;63.10
1786;DHT22;890;48.158;11.540;2023-07-31T09:19:33;23.00;62.10
1786;DHT22;890;48.158;11.540;2023-07-31T09:21:59;23.20;61.60
1786;DHT22;890;48.158;11.540;2023-07-31T09:24:29;23.30;61.70
1786;DHT22;890;48.158;11.540;2023-07-31T09:26:57;23.30;61.20
1786;DHT22;890;48.158;11.540;2023-07-31T09:29:24;23.40;61.10
1786;DHT22;890;48.158;11.540;2023-07-31T09:31:50;23.40;60.90
1786;DHT22;890;48.158;11.540;2023-07-31T09:34:16;23.30;60.50
1786;DHT22;890;48.158;11.540;2023-07-31T09:36:46;23.60;60.80
1786;DHT22;890;48.158;11.540;2023-07-31T09:39:13;23.60;59.90
1786;DHT22;890;48.158;11.540;2023-07-31T09:41:44;23.50;60.60
1786;DHT22;890;48.158;11.540;2023-07-31T09:44:10;23.60;60.40
1786;DHT22;890;48.158;11.540;2023-07-31T09:46:36;23.50;60.90
1786;DHT22;890;48.158;11.540;2023-07-31T09:49:13;23.50;61.30
1786;DHT22;890;48.158;11.540;2023-07-31T09:51:41;24.00;64.30
1786;DHT22;890;48.158;11.540;2023-07-31T09:54:15;24.70;67.60
1786;DHT22;890;48.158;11.540;2023-07-31T09:56:48;25.60;66.90
1786;DHT22;890;48.158;11.540;2023-07-31T09:59:16;26.70;64.60
1786;DHT22;890;48.158;11.540;2023-07-31T10:01:43;27.20;62.90
1786;DHT22;890;48.158;11.540;2023-07-31T10:04:10;27.50;62.40
1786;DHT22;890;48.158;11.540;2023-07-31T10:06:37;28.10;59.70
1786;DHT22;890;48.158;11.540;2023-07-31T10:09:07;28.60;53.90
1786;DHT22;890;48.158;11.540;2023-07-31T10:11:47;28.50;53.30
1786;DHT22;890;48.158;11.540;2023-07-31T10:14:18;27.80;51.60
1786;DHT22;890;48.158;11.540;2023-07-31T10:16:45;27.60;51.80
1786;DHT22;890;48.158;11.540;2023-07-31T10:19:10;28.10;54.40
1786;DHT22;890;48.158;11.540;2023-07-31T10:21:37;28.50;54.70
1786;DHT22;890;48.158;11.540;2023-07-31T10:24:04;28.70;51.40
1786;DHT22;890;48.158;11.540;2023-07-31T10:26:31;29.50;51.00
1786;DHT22;890;48.158;11.540;2023-07-31T10:28:58;29.60;48.00
1786;DHT22;890;48.158;11.540;2023-07-31T10:31:24;30.20;48.70
1786;DHT22;890;48.158;11.540;2023-07-31T10:33:51;30.20;46.80
1786;DHT22;890;48.158;11.540;2023-07-31T10:36:19;29.40;46.80
1786;DHT22;890;48.158;11.540;2023-07-31T10:38:45;29.10;47.40
1786;DHT22;890;48.158;11.540;2023-07-31T10:41:13;28.80;47.20
1786;DHT22;890;48.158;11.540;2023-07-31T10:43:39;28.50;47.40
1786;DHT22;890;48.158;11.540;2023-07-31T10:46:14;28.00;47.10
1786;DHT22;890;48.158;11.540;2023-07-31T10:48:41;27.20;47.90
1786;DHT22;890;48.158;11.540;2023-07-31T10:51:11;26.80;47.80
1786;DHT22;890;48.158;11.540;2023-07-31T10:53:38;26.40;48.10
1786;DHT22;890;48.158;11.540;2023-07-31T10:56:09;26.10;48.90
1786;DHT22;890;48.158;11.540;2023-07-31T10:58:38;25.40;49.40
1786;DHT22;890;48.158;11.540;2023-07-31T11:01:05;25.30;50.20
1786;DHT22;890;48.158;11.540;2023-07-31T11:03:50;25.90;52.40
1786;DHT22;890;48.158;11.540;2023-07-31T11:06:18;26.60;52.10
1786;DHT22;890;48.158;11.540;2023-07-31T11:08:46;27.20;51.90
1786;DHT22;890;48.158;11.540;2023-07-31T11:11:14;28.30;51.50
1786;DHT22;890;48.158;11.540;2023-07-31T11:16:06;28.00;49.50
1786;DHT22;890;48.158;11.540;2023-07-31T11:18:31;28.20;49.60
1786;DHT22;890;48.158;11.540;2023-07-31T11:20:57;28.00;48.00
1786;DHT22;890;48.158;11.540;2023-07-31T11:23:23;28.30;47.60
1786;DHT22;890;48.158;11.540;2023-07-31T11:25:49;28.50;47.80
1786;DHT22;890;48.158;11.540;2023-07-31T11:28:17;28.70;48.60
1786;DHT22;890;48.158;11.540;2023-07-31T11:30:44;29.00;47.20
1786;DHT22;890;48.158;11.540;2023-07-31T11:33:11;28.60;46.60
1786;DHT22;890;48.158;11.540;2023-07-31T11:35:48;28.70;47.60
1786;DHT22;890;48.158;11.540;2023-07-31T11:38:27;29.10;46.60
1786;DHT22;890;48.158;11.540;2023-07-31T11:40:55;29.10;45.40
1786;DHT22;890;48.158;11.540;2023-07-31T11:43:21;29.40;45.70
1786;DHT22;890;48.158;11.540;2023-07-31T11:45:52;29.30;45.90
1786;DHT22;890;48.158;11.540;2023-07-31T11:48:20;29.40;46.00
1786;DHT22;890;48.158;11.540;2023-07-31T11:50:46;30.20;45.60
1786;DHT22;890;48.158;11.540;2023-07-31T11:53:13;30.60;45.90
1786;DHT22;890;48.158;11.540;2023-07-31T11:55:39;31.20;44.30
1786;DHT22;890;48.158;11.540;2023-07-31T11:58:05;31.40;43.10
1786;DHT22;890;48.158;11.540;2023-07-31T12:00:31;31.60;43.00
1786;DHT22;890;48.158;11.540;2023-07-31T12:02:56;31.70;42.00
1786;DHT22;890;48.158;11.540;2023-07-31T12:05:22;31.80;41.60
1786;DHT22;890;48.158;11.540;2023-07-31T12:07:54;31.80;41.70
1786;DHT22;890;48.158;11.540;2023-07-31T12:10:38;31.70;40.70
1786;DHT22;890;48.158;11.540;2023-07-31T12:13:09;31.80;40.50
1786;DHT22;890;48.158;11.540;2023-07-31T12:15:43;32.10;40.20
1786;DHT22;890;48.158;11.540;2023-07-31T12:18:11;31.90;39.70
1786;DHT22;890;48.158;11.540;2023-07-31T12:20:48;32.10;39.30
1786;DHT22;890;48.158;11.540;2023-07-31T12:23:23;32.80;38.10
1786;DHT22;890;48.158;11.540;2023-07-31T12:26:12;32.60;38.50
1786;DHT22;890;48.158;11.540;2023-07-31T12:28:40;32.30;38.80
1786;DHT22;890;48.158;11.540;2023-07-31T12:31:06;32.20;39.10
1786;DHT22;890;48.158;11.540;2023-07-31T12:33:34;31.40;39.20
1786;DHT22;890;48.158;11.540;2023-07-31T12:36:04;31.10;39.20
1786;DHT22;890;48.158;11.540;2023-07-31T12:38:30;30.60;39.00
1786;DHT22;890;48.158;11.540;2023-07-31T12:40:56;30.10;39.60
1786;DHT22;890;48.158;11.540;2023-07-31T12:43:21;29.70;39.80
1786;DHT22;890;48.158;11.540;2023-07-31T12:45:47;29.80;40.60
1786;DHT22;890;48.158;11.540;2023-07-31T12:48:13;29.50;40.90
1786;DHT22;890;48.158;11.540;2023-07-31T12:50:39;29.30;40.60
1786;DHT22;890;48.158;11.540;2023-07-31T12:53:05;29.00;40.60
1786;DHT22;890;48.158;11.540;2023-07-31T12:55:30;28.50;41.20
1786;DHT22;890;48.158;11.540;2023-07-31T12:57:56;28.30;42.00
1786;DHT22;890;48.158;11.540;2023-07-31T13:00:22;28.30;42.30
1786;DHT22;890;48.158;11.540;2023-07-31T13:02:48;28.20;42.50
1786;DHT22;890;48.158;11.540;2023-07-31T13:05:14;28.10;42.70
1786;DHT22;890;48.158;11.540;2023-07-31T13:07:40;27.80;43.40
1786;DHT22;890;48.158;11.540;2023-07-31T13:10:07;27.70;43.70
1786;DHT22;890;48.158;11.540;2023-07-31T13:12:32;27.40;44.20
1786;DHT22;890;48.158;11.540;2023-07-31T13:14:58;27.20;44.80
1786;DHT22;890;48.158;11.540;2023-07-31T13:17:24;27.50;44.90
1786;DHT22;890;48.158;11.540;2023-07-31T13:19:49;27.70;44.60
1786;DHT22;890;48.158;11.540;2023-07-31T13:22:15;27.70;44.50
1786;DHT22;890;48.158;11.540;2023-07-31T13:24:41;27.70;44.50
1786;DHT22;890;48.158;11.540;2023-07-31T13:27:07;27.60;44.10
1786;DHT22;890;48.158;11.540;2023-07-31T13:29:32;27.60;44.20
1786;DHT22;890;48.158;11.540;2023-07-31T13:31:58;27.60;44.10
1786;DHT22;890;48.158;11.540;2023-07-31T13:34:24;27.60;44.20
1786;DHT22;890;48.158;11.540;2023-07-31T13:36:49;27.70;43.70
1786;DHT22;890;48.158;11.540;2023-07-31T13:39:15;27.50;44.00
1786;DHT22;890;48.158;11.540;2023-07-31T13:41:42;27.30;44.20
1786;DHT22;890;48.158;11.540;2023-07-31T13:44:08;27.10;44.70
1786;DHT22;890;48.158;11.540;2023-07-31T13:46:33;27.20;45.00
1786;DHT22;890;48.158;11.540;2023-07-31T13:48:59;27.50;44.90
1786;DHT22;890;48.158;11.540;2023-07-31T13:51:26;27.40;44.60
1786;DHT22;890;48.158;11.540;2023-07-31T13:53:53;27.50;44.60
1786;DHT22;890;48.158;11.540;2023-07-31T13:56:19;27.30;44.80
1786;DHT22;890;48.158;11.540;2023-07-31T13:58:44;27.10;44.80
1786;DHT22;890;48.158;11.540;2023-07-31T14:01:10;27.10;45.20
1786;DHT22;890;48.158;11.540;2023-07-31T14:03:35;27.10;45.30
1786;DHT22;890;48.158;11.540;2023-07-31T14:06:01;26.90;45.60
1786;DHT22;890;48.158;11.540;2023-07-31T14:08:27;26.90;45.70
1786;DHT22;890;48.158;11.540;2023-07-31T14:10:52;27.00;45.00
1786;DHT22;890;48.158;11.540;2023-07-31T14:13:18;26.90;44.70
1786;DHT22;890;48.158;11.540;2023-07-31T14:15:44;27.00;44.80
1786;DHT22;890;48.158;11.540;2023-07-31T14:18:09;27.20;44.70
1786;DHT22;890;48.158;11.540;2023-07-31T14:20:35;27.40;44.60
1786;DHT22;890;48.158;11.540;2023-07-31T14:23:02;27.50;44.50
1786;DHT22;890;48.158;11.540;2023-07-31T14:25:27;27.50;44.60
1786;DHT22;890;48.158;11.540;2023-07-31T14:27:53;27.40;44.90
1786;DHT22;890;48.158;11.540;2023-07-31T14:30:18;27.20;45.30
1786;DHT22;890;48.158;11.540;2023-07-31T14:32:44;27.00;45.50
1786;DHT22;890;48.158;11.540;2023-07-31T14:35:10;26.90;45.70
1786;DHT22;890;48.158;11.540;2023-07-31T14:37:43;27.10;45.80
1786;DHT22;890;48.158;11.540;2023-07-31T14:40:10;27.20;44.80
1786;DHT22;890;48.158;11.540;2023-07-31T14:42:36;27.10;45.10
1786;DHT22;890;48.158;11.540;2023-07-31T14:45:03;27.20;45.20
1786;DHT22;890;48.158;11.540;2023-07-31T14:47:29;27.20;45.40
1786;DHT22;890;48.158;11.540;2023-07-31T14:49:56;27.20;45.00
1786;DHT22;890;48.158;11.540;2023-07-31T14:52:22;27.10;45.10
1786;DHT22;890;48.158;11.540;2023-07-31T14:54:47;27.20;45.40
1786;DHT22;890;48.158;11.540;2023-07-31T14:57:13;27.00;45.10
1786;DHT22;890;48.158;11.540;2023-07-31T14:59:39;27.00;45.80
1786;DHT22;890;48.158;11.540;2023-07-31T15:02:04;26.80;45.60
1786;DHT22;890;48.158;11.540;2023-07-31T15:04:30;26.60;45.80
1786;DHT22;890;48.158;11.540;2023-07-31T15:06:56;26.50;45.70
1786;DHT22;890;48.158;11.540;2023-07-31T15:09:21;26.40;45.90
1786;DHT22;890;48.158;11.540;2023-07-31T15:11:47;26.20;46.10
1786;DHT22;890;48.158;11.540;2023-07-31T15:14:13;26.10;46.10
1786;DHT22;890;48.158;11.540;2023-07-31T15:16:38;26.20;46.50
1786;DHT22;890;48.158;11.540;2023-07-31T15:19:04;26.10;46.60
1786;DHT22;890;48.158;11.540;2023-07-31T15:21:30;24.90;45.90
1786;DHT22;890;48.158;11.540;2023-07-31T15:23:55;26.10;46.90
1786;DHT22;890;48.158;11.540;2023-07-31T15:26:21;26.20;47.40
1786;DHT22;890;48.158;11.540;2023-07-31T15:28:55;26.20;47.50
1786;DHT22;890;48.158;11.540;2023-07-31T15:31:21;25.90;47.70
1786;DHT22;890;48.158;11.540;2023-07-31T15:33:48;25.80;48.20
1786;DHT22;890;48.158;11.540;2023-07-31T15:36:13;25.80;48.50
1786;DHT22;890;48.158;11.540;2023-07-31T15:38:39;25.60;48.90
1786;DHT22;890;48.158;11.540;2023-07-31T15:41:05;25.40;49.10
1786;DHT22;890;48.158;11.540;2023-07-31T15:43:31;25.40;50.10
1786;DHT22;890;48.158;11.540;2023-07-31T15:45:57;25.20;49.90
1786;DHT22;890;48.158;11.540;2023-07-31T15:48:23;25.10;50.30
1786;DHT22;890;48.158;11.540;2023-07-31T15:50:48;25.10;50.60
1786;DHT22;890;48.158;11.540;2023-07-31T15:53:14;25.00;50.70
1786;DHT22;890;48.158;11.540;2023-07-31T15:55:40;25.00;50.90
1786;DHT22;890;48.158;11.540;2023-07-31T15:58:05;25.00;51.30
1786;DHT22;890;48.158;11.540;2023-07-31T16:00:32;24.90;51.50
1786;DHT22;890;48.158;11.540;2023-07-31T16:02:58;24.90;51.90
1786;DHT22;890;48.158;11.540;2023-07-31T16:05:23;24.90;52.00